createdAt,value
2023-01-18T00:00:11.207Z,5.30
2023-01-18T00:04:14.135Z,4.73
2023-01-18T00:08:18.921Z,4.83
2023-01-18T00:12:21.540Z,5.37
2023-01-18T00:16:25.861Z,5.40
2023-01-18T00:20:29.663Z,5.17
2023-01-18T00:24:33.700Z,5.37
2023-01-18T00:28:36.618Z,5.87
2023-01-18T00:32:39.322Z,6.07
2023-01-18T00:36:41.931Z,5.47
2023-01-18T00:40:46.266Z,5.30
2023-01-18T00:44:49.001Z,5.17
2023-01-18T00:48:52.574Z,4.83
2023-01-18T00:52:57.747Z,4.50
2023-01-18T00:57:02.327Z,4.43
2023-01-18T01:01:06.126Z,4.87
2023-01-18T01:05:35.182Z,5.17
2023-01-18T01:09:38.174Z,4.90
2023-01-18T01:13:59.586Z,4.80
2023-01-18T01:18:20.025Z,4.93
2023-01-18T01:22:40.266Z,4.93
2023-01-18T01:26:43.596Z,4.90
2023-01-18T01:30:47.720Z,4.60
2023-01-18T01:34:50.642Z,4.67
2023-01-18T01:38:53.495Z,4.80
2023-01-18T01:42:56.695Z,4.63
2023-01-18T01:47:04.521Z,4.47
2023-01-18T01:51:07.512Z,5.17
2023-01-18T01:55:13.315Z,4.40
2023-01-18T01:59:16.621Z,4.73
2023-01-18T02:03:20.718Z,5.03
2023-01-18T02:07:26.221Z,5.37
2023-01-18T02:11:29.377Z,4.63
2023-01-18T02:15:35.992Z,4.90
2023-01-18T02:20:04.666Z,4.40
2023-01-18T02:24:39.051Z,4.50
2023-01-18T02:28:53.610Z,4.33
2023-01-18T02:33:02.856Z,4.47
2023-01-18T02:37:08.461Z,4.53
2023-01-18T02:41:14.615Z,4.93
2023-01-18T02:45:39.637Z,4.83
2023-01-18T02:49:43.259Z,4.53
2023-01-18T02:53:47.849Z,5.00
2023-01-18T02:57:50.735Z,4.83
2023-01-18T03:01:57.285Z,4.57
2023-01-18T03:06:02.233Z,4.37
2023-01-18T03:10:08.536Z,4.70
2023-01-18T03:14:19.777Z,4.80
2023-01-18T03:18:28.861Z,4.70
2023-01-18T03:22:51.573Z,4.73
2023-01-18T03:26:55.304Z,4.50
2023-01-18T03:31:18.159Z,4.67
2023-01-18T03:35:28.461Z,3.73
2023-01-18T03:39:33.462Z,4.43
2023-01-18T03:43:37.700Z,4.60
2023-01-18T03:47:40.892Z,4.73
2023-01-18T03:51:54.696Z,4.30
2023-01-18T03:56:00.415Z,4.43
2023-01-18T04:00:05.993Z,4.47
2023-01-18T04:04:08.675Z,4.50
2023-01-18T04:08:14.464Z,4.83
2023-01-18T04:12:17.090Z,4.60
2023-01-18T04:16:20.044Z,4.87
2023-01-18T04:20:22.907Z,4.50
2023-01-18T04:24:27.133Z,4.63
2023-01-18T04:28:29.794Z,4.70
2023-01-18T04:32:32.709Z,4.83
2023-01-18T04:36:35.346Z,4.80
2023-01-18T04:40:39.625Z,4.83
2023-01-18T04:44:42.291Z,4.90
2023-01-18T04:48:45.223Z,5.00
2023-01-18T04:52:47.913Z,4.97
2023-01-18T04:56:52.235Z,4.60
2023-01-18T05:00:55.162Z,5.13
2023-01-18T05:05:00.039Z,4.37
2023-01-18T05:09:03.019Z,5.13
2023-01-18T05:13:07.435Z,5.07
2023-01-18T05:17:10.111Z,5.10
2023-01-18T05:21:13.225Z,5.43
2023-01-18T05:25:15.908Z,5.60
2023-01-18T05:29:20.153Z,5.90
2023-01-18T05:33:24.005Z,5.77
2023-01-18T05:37:26.715Z,5.50
2023-01-18T05:41:29.365Z,5.90
2023-01-18T05:45:34.342Z,5.80
2023-01-18T05:49:36.998Z,6.50
2023-01-18T05:53:40.580Z,5.47
2023-01-18T05:57:43.271Z,6.37
2023-01-18T06:01:47.631Z,5.80
2023-01-18T06:05:51.372Z,5.83
2023-01-18T06:09:54.316Z,5.73
2023-01-18T06:13:57.068Z,5.83
2023-01-18T06:18:01.357Z,6.40
2023-01-18T06:22:04.083Z,6.53
2023-01-18T06:26:06.891Z,6.93
2023-01-18T06:30:11.248Z,7.13
2023-01-18T06:34:15.617Z,7.30
2023-01-18T06:38:18.473Z,7.07
2023-01-18T06:42:21.173Z,6.63
2023-01-18T06:46:24.139Z,6.50
2023-01-18T06:50:28.871Z,7.63
2023-01-18T06:54:31.594Z,7.57
2023-01-18T06:58:34.517Z,7.83
2023-01-18T07:02:37.429Z,7.97
2023-01-18T07:06:41.770Z,7.60
2023-01-18T07:10:44.482Z,7.97
2023-01-18T07:14:47.166Z,8.37
2023-01-18T07:18:50.438Z,7.43
2023-01-18T07:22:54.485Z,7.27
2023-01-18T07:26:59.496Z,6.53
2023-01-18T07:31:02.292Z,6.17
2023-01-18T07:35:05.783Z,5.90
2023-01-18T07:39:10.436Z,5.90
2023-01-18T07:43:13.473Z,6.37
2023-01-18T07:47:16.266Z,6.13
2023-01-18T07:51:19.243Z,6.10
2023-01-18T07:55:23.494Z,4.63
2023-01-18T07:59:27.792Z,5.97
2023-01-18T08:03:30.635Z,6.03
2023-01-18T08:07:33.796Z,5.10
2023-01-18T08:11:37.880Z,5.63
2023-01-18T08:15:40.885Z,5.40
2023-01-18T08:19:43.657Z,6.60
2023-01-18T08:23:46.406Z,6.43
2023-01-18T08:27:50.487Z,5.53
2023-01-18T08:31:54.219Z,6.00
2023-01-18T08:35:57.318Z,5.40
2023-01-18T08:40:00.033Z,5.73
2023-01-18T08:44:04.493Z,4.93
2023-01-18T08:48:09.249Z,5.13
2023-01-18T08:52:11.926Z,4.97
2023-01-18T08:56:14.941Z,4.47
2023-01-18T09:00:20.112Z,5.10
2023-01-18T09:04:23.349Z,4.53
2023-01-18T09:08:26.333Z,4.53
2023-01-18T09:12:29.299Z,5.67
2023-01-18T09:16:33.371Z,4.93
2023-01-18T09:20:37.042Z,5.53
2023-01-18T09:24:40.039Z,4.70
2023-01-18T09:28:43.548Z,5.17
2023-01-18T09:32:47.792Z,4.70
2023-01-18T09:36:51.289Z,4.97
2023-01-18T09:40:54.352Z,4.87
2023-01-18T09:44:59.638Z,4.23
2023-01-18T09:49:06.074Z,4.60
2023-01-18T09:53:18.883Z,4.50
2023-01-18T09:57:31.542Z,4.23
2023-01-18T10:01:35.603Z,4.70
2023-01-18T10:05:45.444Z,4.70
2023-01-18T10:09:50.457Z,4.77
2023-01-18T10:13:59.904Z,5.00
2023-01-18T10:18:02.581Z,4.47
2023-01-18T10:22:08.591Z,5.03
2023-01-18T10:26:16.640Z,4.63
2023-01-18T10:30:43.761Z,4.40
2023-01-18T10:34:49.422Z,3.97
2023-01-18T10:38:55.013Z,4.70
2023-01-18T10:43:01.685Z,3.50
2023-01-18T10:47:04.602Z,3.90
2023-01-18T10:51:08.043Z,3.50
2023-01-18T10:55:17.360Z,3.60
2023-01-18T10:59:26.599Z,3.00
2023-01-18T11:03:37.442Z,3.20
2023-01-18T11:07:40.221Z,3.13
2023-01-18T11:12:01.478Z,2.90
2023-01-18T11:16:10.515Z,3.27
2023-01-18T11:20:17.808Z,2.83
2023-01-18T11:24:24.766Z,2.87
2023-01-18T11:28:31.454Z,3.20
2023-01-18T11:32:34.143Z,3.37
2023-01-18T11:36:38.993Z,3.63
2023-01-18T11:40:41.783Z,2.97
2023-01-18T11:44:51.770Z,3.33
2023-01-18T11:48:59.412Z,3.20
2023-01-18T11:53:10.960Z,3.60
2023-01-18T11:57:14.355Z,4.67
2023-01-18T12:01:46.483Z,4.20
2023-01-18T12:05:54.832Z,3.80
2023-01-18T12:09:58.892Z,5.20
2023-01-18T12:14:05.996Z,4.83
2023-01-18T12:18:23.135Z,4.67
2023-01-18T12:22:53.318Z,4.50
2023-01-18T12:26:59.494Z,4.53
2023-01-18T12:31:14.833Z,4.80
2023-01-18T12:35:47.999Z,4.73
2023-01-18T12:39:59.910Z,5.13
2023-01-18T12:44:23.501Z,5.10
2023-01-18T12:48:29.484Z,4.90
2023-01-18T12:52:40.262Z,4.97
2023-01-18T12:56:45.217Z,5.20
2023-01-18T13:00:51.041Z,5.00
2023-01-18T13:04:55.939Z,5.93
2023-01-18T13:09:02.301Z,4.20
2023-01-18T13:13:06.908Z,4.53
2023-01-18T13:17:12.716Z,4.87
2023-01-18T13:21:25.419Z,4.93
2023-01-18T13:25:36.679Z,4.90
2023-01-18T13:29:40.057Z,4.40
2023-01-18T13:33:45.453Z,4.83
2023-01-18T13:37:50.889Z,4.60
2023-01-18T13:42:25.187Z,12.77
2023-01-18T13:46:28.675Z,15.10
2023-01-18T13:50:47.827Z,7.03
2023-01-18T13:55:03.674Z,6.93
2023-01-18T13:59:18.515Z,5.10
2023-01-18T14:03:23.445Z,4.70
2023-01-18T14:07:26.451Z,4.50
2023-01-18T14:11:31.351Z,5.50
2023-01-18T14:15:52.596Z,4.60
2023-01-18T14:20:04.229Z,4.83
2023-01-18T14:24:28.722Z,4.70
2023-01-18T14:28:36.662Z,3.67
2023-01-18T14:32:45.334Z,4.80
2023-01-18T14:36:48.030Z,5.17
2023-01-18T14:40:52.651Z,4.77
2023-01-18T14:44:59.133Z,4.90
2023-01-18T14:49:03.386Z,4.57
2023-01-18T14:53:08.097Z,5.10
2023-01-18T14:57:14.969Z,4.17
2023-01-18T15:01:27.353Z,4.30
2023-01-18T15:05:31.811Z,4.60
2023-01-18T15:09:37.596Z,4.40
2023-01-18T15:13:47.592Z,4.13
2023-01-18T15:17:50.936Z,3.77
2023-01-18T15:21:55.124Z,4.47
2023-01-18T15:25:59.009Z,4.90
2023-01-18T15:30:02.660Z,4.20
2023-01-18T15:34:05.469Z,3.43
2023-01-18T15:38:10.894Z,4.50
2023-01-18T15:42:15.585Z,4.23
2023-01-18T15:46:18.572Z,4.17
2023-01-18T15:50:22.391Z,4.83
2023-01-18T15:54:28.479Z,5.30
2023-01-18T15:58:35.245Z,5.43
2023-01-18T16:02:42.591Z,4.83
2023-01-18T16:06:45.570Z,5.90
2023-01-18T16:10:51.889Z,5.93
2023-01-18T16:14:54.617Z,7.03
2023-01-18T16:19:04.776Z,5.90
2023-01-18T16:23:09.559Z,5.47
2023-01-18T16:27:15.451Z,5.17
2023-01-18T16:31:18.521Z,5.00
2023-01-18T16:35:23.163Z,4.50
2023-01-18T16:39:25.834Z,4.97
2023-01-18T16:43:30.332Z,9.53
2023-01-18T16:47:33.063Z,10.33
2023-01-18T16:51:36.052Z,13.90
2023-01-18T16:55:38.951Z,6.73
2023-01-18T16:59:43.671Z,6.57
2023-01-18T17:03:46.507Z,6.27
2023-01-18T17:07:50.871Z,7.37
2023-01-18T17:11:54.137Z,7.83
2023-01-18T17:15:58.179Z,6.23
2023-01-18T17:20:01.160Z,7.13
2023-01-18T17:24:04.677Z,5.43
2023-01-18T17:28:08.519Z,6.10
2023-01-18T17:32:13.123Z,6.87
2023-01-18T17:36:15.862Z,8.33
2023-01-18T17:40:27.514Z,7.10
2023-01-18T17:44:37.559Z,6.20
2023-01-18T17:48:41.894Z,6.13
2023-01-18T17:52:44.576Z,6.90
2023-01-18T17:56:47.302Z,6.10
2023-01-18T18:00:50.167Z,6.77
2023-01-18T18:04:54.358Z,6.47
2023-01-18T18:08:58.857Z,5.70
2023-01-18T18:13:01.932Z,5.93
2023-01-18T18:17:06.046Z,7.37
2023-01-18T18:21:10.899Z,16.80
2023-01-18T18:25:14.056Z,13.60
2023-01-18T18:29:16.737Z,16.73
2023-01-18T18:33:20.101Z,9.27
2023-01-18T18:37:24.482Z,8.37
2023-01-18T18:41:27.379Z,11.03
2023-01-18T18:45:31.756Z,9.30
2023-01-18T18:49:34.509Z,9.27
2023-01-18T18:53:39.337Z,8.23
2023-01-18T18:57:43.087Z,7.50
2023-01-18T19:01:45.834Z,8.90
2023-01-18T19:05:48.836Z,8.53
2023-01-18T19:09:53.261Z,8.17
2023-01-18T19:13:56.834Z,7.43
2023-01-18T19:17:59.574Z,4.67
2023-01-18T19:22:02.762Z,6.53
2023-01-18T19:26:07.240Z,7.73
2023-01-18T19:30:12.839Z,7.87
2023-01-18T19:34:15.789Z,7.83
2023-01-18T19:38:18.732Z,6.93
2023-01-18T19:42:22.710Z,8.03
2023-01-18T19:46:25.423Z,7.73
2023-01-18T19:50:29.813Z,6.97
2023-01-18T19:54:32.890Z,7.30
2023-01-18T19:58:38.628Z,7.33
2023-01-18T20:02:42.998Z,8.40
2023-01-18T20:06:46.063Z,7.17
2023-01-18T20:10:48.967Z,7.53
2023-01-18T20:14:52.999Z,8.60
2023-01-18T20:18:56.090Z,9.50
2023-01-18T20:22:59.742Z,8.30
2023-01-18T20:27:15.421Z,9.00
2023-01-18T20:31:20.624Z,8.60
2023-01-18T20:35:23.528Z,8.77
2023-01-18T20:39:26.312Z,8.10
2023-01-18T20:43:29.016Z,7.80
2023-01-18T20:47:33.444Z,7.93
2023-01-18T20:51:36.385Z,8.87
2023-01-18T20:55:39.906Z,8.17
2023-01-18T20:59:42.577Z,8.33
2023-01-18T21:03:48.392Z,8.53
2023-01-18T21:07:51.334Z,8.10
2023-01-18T21:11:54.440Z,8.07
2023-01-18T21:15:58.772Z,8.70
2023-01-18T21:20:02.983Z,8.30
2023-01-18T21:24:06.048Z,7.93
2023-01-18T21:28:08.880Z,8.17
2023-01-18T21:32:11.803Z,7.47
2023-01-18T21:36:17.425Z,8.30
2023-01-18T21:40:20.242Z,8.17
2023-01-18T21:44:40.409Z,7.53
2023-01-18T21:48:43.068Z,8.10
2023-01-18T21:53:04.638Z,8.57
2023-01-18T21:57:07.329Z,7.97
2023-01-18T22:01:13.833Z,7.40
2023-01-18T22:05:16.586Z,7.40
2023-01-18T22:09:20.836Z,8.03
2023-01-18T22:13:23.498Z,8.03
2023-01-18T22:17:27.071Z,8.47
2023-01-18T22:21:30.084Z,8.30
2023-01-18T22:25:34.470Z,8.40
2023-01-18T22:29:37.204Z,7.97
2023-01-18T22:33:40.134Z,8.33
2023-01-18T22:37:42.858Z,8.63
2023-01-18T22:41:47.174Z,8.93
2023-01-18T22:45:55.694Z,8.17
2023-01-18T22:49:59.126Z,10.40
2023-01-18T22:54:01.880Z,10.30
2023-01-18T22:58:06.152Z,9.90
2023-01-18T23:02:09.120Z,8.07
2023-01-18T23:06:12.117Z,8.33
2023-01-18T23:10:15.066Z,8.70
2023-01-18T23:14:36.718Z,8.20
2023-01-18T23:18:39.373Z,8.50
2023-01-18T23:22:42.065Z,7.83
2023-01-18T23:26:44.752Z,8.43
2023-01-18T23:30:48.824Z,8.17
2023-01-18T23:34:51.540Z,8.23
2023-01-18T23:39:11.807Z,8.80
2023-01-18T23:43:32.005Z,8.60
2023-01-18T23:47:53.595Z,8.70
2023-01-18T23:52:14.022Z,7.80
2023-01-18T23:56:16.795Z,7.90
